AAL305 KFLL-MMUN
Flight info
| Callsign | AAL305 |
|---|---|
| Flight time | N/A |
| Altitude | 40000 |
| Route | GLADZ4 LULLS Y196 CANOA UB879 NOSAT NOSAT1B |
| Aircraft | B77W/H-SDE1E2E3FGHIJ2J3J4J5M1RWXY/LB1D1 |
Departure
| Time | 2026-05-04 00:07 |
|---|---|
| Airport | Fort Lauderdale Hollywood International Airport (KFLL) |
Arrival
| Time | N/A |
|---|---|
| Airport | Cancún International Airport (MMUN) |
| Time | Latitude | Longitude | Altitude | Speed | Heading |
|---|---|---|---|---|---|
| 2026-05-03 22:48 | 26.07411 | -80.14289 | 23 ft | 0 kts | 196° |
| 2026-05-03 23:00 | 26.07420 | -80.14286 | 23 ft | 2 kts | 195° |
| 2026-05-03 23:00 | 26.07436 | -80.14281 | 26 ft | 2 kts | 197° |
| 2026-05-03 23:00 | 26.07452 | -80.14276 | 24 ft | 2 kts | 198° |
| 2026-05-03 23:00 | 26.07467 | -80.14270 | 29 ft | 2 kts | 202° |
| 2026-05-03 23:01 | 26.07482 | -80.14262 | 30 ft | 2 kts | 230° |
| 2026-05-03 23:01 | 26.07486 | -80.14250 | 23 ft | 1 kts | 270° |
| 2026-05-03 23:01 | 26.07486 | -80.14249 | 23 ft | 0 kts | 270° |
| 2026-05-03 23:06 | 26.07486 | -80.14250 | 23 ft | 0 kts | 270° |
| 2026-05-03 23:07 | 26.07486 | -80.14251 | 23 ft | 0 kts | 270° |
| 2026-05-03 23:07 | 26.07488 | -80.14299 | 31 ft | 15 kts | 271° |
| 2026-05-03 23:07 | 26.07488 | -80.14421 | 21 ft | 16 kts | 269° |
| 2026-05-03 23:07 | 26.07489 | -80.14548 | 21 ft | 16 kts | 270° |
| 2026-05-03 23:08 | 26.07490 | -80.14675 | 21 ft | 16 kts | 270° |
| 2026-05-03 23:08 | 26.07489 | -80.14802 | 21 ft | 16 kts | 269° |
| 2026-05-03 23:08 | 26.07489 | -80.14975 | 21 ft | 26 kts | 270° |
| 2026-05-03 23:08 | 26.07489 | -80.15179 | 20 ft | 26 kts | 270° |
| 2026-05-03 23:09 | 26.07491 | -80.15383 | 20 ft | 26 kts | 270° |
| 2026-05-03 23:09 | 26.07491 | -80.15571 | 20 ft | 21 kts | 270° |
| 2026-05-03 23:09 | 26.07493 | -80.15716 | 20 ft | 10 kts | 270° |
| 2026-05-03 23:09 | 26.07493 | -80.15745 | 20 ft | 0 kts | 270° |
| 2026-05-03 23:10 | 26.07493 | -80.15747 | 20 ft | 0 kts | 270° |
| 2026-05-03 23:11 | 26.07493 | -80.15748 | 20 ft | 0 kts | 270° |
| 2026-05-03 23:11 | 26.07493 | -80.15756 | 20 ft | 4 kts | 270° |
| 2026-05-03 23:11 | 26.07493 | -80.15804 | 20 ft | 6 kts | 270° |
| 2026-05-03 23:12 | 26.07493 | -80.15854 | 20 ft | 6 kts | 270° |
| 2026-05-03 23:12 | 26.07493 | -80.15879 | 21 ft | 0 kts | 270° |
| 2026-05-03 23:14 | 26.07494 | -80.15902 | 21 ft | 5 kts | 270° |
| 2026-05-03 23:14 | 26.07494 | -80.15921 | 21 ft | 0 kts | 271° |
| 2026-05-03 23:15 | 26.07494 | -80.15939 | 21 ft | 9 kts | 270° |
| 2026-05-03 23:15 | 26.07494 | -80.15998 | 21 ft | 4 kts | 270° |
| 2026-05-03 23:16 | 26.07494 | -80.16002 | 21 ft | 0 kts | 270° |
| 2026-05-03 23:16 | 26.07494 | -80.16042 | 21 ft | 10 kts | 270° |
| 2026-05-03 23:17 | 26.07495 | -80.16086 | 21 ft | 0 kts | 271° |
| 2026-05-03 23:35 | 26.07495 | -80.16089 | 21 ft | 3 kts | 271° |
| 2026-05-03 23:35 | 26.07495 | -80.16134 | 21 ft | 6 kts | 270° |
| 2026-05-03 23:36 | 26.07495 | -80.16148 | 21 ft | 0 kts | 271° |
| 2026-05-03 23:38 | 26.07495 | -80.16151 | 21 ft | 2 kts | 270° |
| 2026-05-03 23:38 | 26.07495 | -80.16194 | 21 ft | 5 kts | 269° |
| 2026-05-03 23:38 | 26.07495 | -80.16197 | 21 ft | 0 kts | 269° |
| 2026-05-03 23:43 | 26.07495 | -80.16242 | 21 ft | 7 kts | 270° |
| 2026-05-03 23:43 | 26.07495 | -80.16279 | 21 ft | 0 kts | 270° |
| 2026-05-03 23:48 | 26.07496 | -80.16288 | 21 ft | 5 kts | 271° |
| 2026-05-03 23:48 | 26.07496 | -80.16342 | 21 ft | 7 kts | 270° |
| 2026-05-03 23:48 | 26.07496 | -80.16364 | 21 ft | 0 kts | 270° |
| 2026-05-03 23:52 | 26.07496 | -80.16378 | 21 ft | 3 kts | 270° |
| 2026-05-03 23:52 | 26.07496 | -80.16391 | 21 ft | 0 kts | 271° |
| 2026-05-03 23:53 | 26.07497 | -80.16398 | 21 ft | 4 kts | 271° |
| 2026-05-03 23:53 | 26.07497 | -80.16446 | 21 ft | 0 kts | 270° |
| 2026-05-03 23:56 | 26.07497 | -80.16448 | 21 ft | 3 kts | 270° |
| 2026-05-03 23:56 | 26.07498 | -80.16503 | 21 ft | 8 kts | 271° |
| 2026-05-03 23:57 | 26.07498 | -80.16513 | 21 ft | 0 kts | 271° |
| 2026-05-03 23:57 | 26.07498 | -80.16518 | 21 ft | 1 kts | 271° |
| 2026-05-03 23:57 | 26.07498 | -80.16520 | 21 ft | 0 kts | 271° |
| 2026-05-03 23:58 | 26.07498 | -80.16522 | 21 ft | 0 kts | 271° |
| 2026-05-03 23:58 | 26.07498 | -80.16523 | 21 ft | 0 kts | 271° |
| 2026-05-03 23:58 | 26.07498 | -80.16545 | 21 ft | 0 kts | 270° |
| 2026-05-03 23:58 | 26.07498 | -80.16554 | 21 ft | 3 kts | 271° |
| 2026-05-03 23:59 | 26.07498 | -80.16560 | 21 ft | 0 kts | 271° |
| 2026-05-03 23:59 | 26.07498 | -80.16561 | 21 ft | 1 kts | 272° |
| 2026-05-03 23:59 | 26.07499 | -80.16570 | 21 ft | 0 kts | 272° |
| 2026-05-03 23:59 | 26.07499 | -80.16579 | 21 ft | 0 kts | 271° |
| 2026-05-04 00:00 | 26.07499 | -80.16580 | 21 ft | 0 kts | 271° |
| 2026-05-04 00:01 | 26.07499 | -80.16583 | 21 ft | 3 kts | 271° |
| 2026-05-04 00:01 | 26.07499 | -80.16588 | 21 ft | 1 kts | 271° |
| 2026-05-04 00:02 | 26.07499 | -80.16598 | 21 ft | 0 kts | 272° |
| 2026-05-04 00:02 | 26.07499 | -80.16599 | 21 ft | 0 kts | 272° |
| 2026-05-04 00:02 | 26.07506 | -80.16625 | 29 ft | 7 kts | 297° |
| 2026-05-04 00:03 | 26.07542 | -80.16643 | 22 ft | 3 kts | 358° |
| 2026-05-04 00:03 | 26.07545 | -80.16642 | 22 ft | 0 kts | 360° |
| 2026-05-04 00:03 | 26.07566 | -80.16642 | 23 ft | 0 kts | 360° |
| 2026-05-04 00:05 | 26.07577 | -80.16643 | 23 ft | 7 kts | 360° |
| 2026-05-04 00:05 | 26.07657 | -80.16642 | 23 ft | 10 kts | 1° |
| 2026-05-04 00:06 | 26.07695 | -80.16594 | 26 ft | 7 kts | 90° |
| 2026-05-04 00:06 | 26.07695 | -80.16582 | 27 ft | 0 kts | 91° |
| 2026-05-04 00:06 | 26.07694 | -80.16541 | 27 ft | 20 kts | 90° |
| 2026-05-04 00:06 | 26.07692 | -80.15993 | 28 ft | 125 kts | 90° |
| 2026-05-04 00:07 | 26.07681 | -80.14644 | 110 ft | 214 kts | 91° |
| 2026-05-04 00:07 | 26.07653 | -80.12921 | 1232 ft | 229 kts | 88° |
| 2026-05-04 00:07 | 26.07678 | -80.11117 | 2349 ft | 240 kts | 87° |
| 2026-05-04 00:07 | 26.08002 | -80.09236 | 2813 ft | 258 kts | 70° |
| 2026-05-04 00:08 | 26.08946 | -80.07519 | 3381 ft | 267 kts | 39° |
| 2026-05-04 00:08 | 26.10562 | -80.06490 | 3954 ft | 271 kts | 19° |
| 2026-05-04 00:08 | 26.12360 | -80.05758 | 4013 ft | 279 kts | 18° |
| 2026-05-04 00:08 | 26.14151 | -80.05049 | 4012 ft | 274 kts | 15° |
| 2026-05-04 00:09 | 26.15997 | -80.04853 | 4025 ft | 266 kts | 348° |
| 2026-05-04 00:09 | 26.17769 | -80.05448 | 4031 ft | 268 kts | 338° |